sensor_id;sensor_type;location;lat;lon;timestamp;P1;durP1;ratioP1;P2;durP2;ratioP2
11807;SDS011;5961;42.640;23.380;2022-12-18T00:00:39;4.17;;;3.20;;
11807;SDS011;5961;42.640;23.380;2022-12-18T00:03:06;4.50;;;3.50;;
11807;SDS011;5961;42.640;23.380;2022-12-18T00:05:33;4.70;;;3.63;;
11807;SDS011;5961;42.640;23.380;2022-12-18T00:08:01;4.40;;;3.50;;
11807;SDS011;5961;42.640;23.380;2022-12-18T00:10:28;3.40;;;3.10;;
11807;SDS011;5961;42.640;23.380;2022-12-18T00:12:55;5.30;;;3.53;;
11807;SDS011;5961;42.640;23.380;2022-12-18T00:15:22;3.80;;;3.40;;
11807;SDS011;5961;42.640;23.380;2022-12-18T00:17:48;4.10;;;3.70;;
11807;SDS011;5961;42.640;23.380;2022-12-18T00:20:15;4.63;;;3.83;;
11807;SDS011;5961;42.640;23.380;2022-12-18T00:22:46;4.70;;;3.90;;
11807;SDS011;5961;42.640;23.380;2022-12-18T00:25:14;5.50;;;3.80;;
11807;SDS011;5961;42.640;23.380;2022-12-18T00:27:41;5.53;;;4.20;;
11807;SDS011;5961;42.640;23.380;2022-12-18T00:30:08;4.90;;;3.90;;
11807;SDS011;5961;42.640;23.380;2022-12-18T00:32:36;6.13;;;4.40;;
11807;SDS011;5961;42.640;23.380;2022-12-18T00:35:03;7.13;;;4.53;;
11807;SDS011;5961;42.640;23.380;2022-12-18T00:37:30;5.37;;;4.17;;
11807;SDS011;5961;42.640;23.380;2022-12-18T00:39:57;5.67;;;4.40;;
11807;SDS011;5961;42.640;23.380;2022-12-18T00:42:25;5.30;;;4.30;;
11807;SDS011;5961;42.640;23.380;2022-12-18T00:45:09;6.37;;;4.80;;
11807;SDS011;5961;42.640;23.380;2022-12-18T00:47:35;5.30;;;4.57;;
11807;SDS011;5961;42.640;23.380;2022-12-18T00:50:02;7.20;;;5.10;;
11807;SDS011;5961;42.640;23.380;2022-12-18T00:52:30;5.97;;;4.30;;
11807;SDS011;5961;42.640;23.380;2022-12-18T00:54:56;5.93;;;4.53;;
11807;SDS011;5961;42.640;23.380;2022-12-18T00:57:24;5.47;;;4.73;;
11807;SDS011;5961;42.640;23.380;2022-12-18T00:59:51;6.17;;;4.90;;
11807;SDS011;5961;42.640;23.380;2022-12-18T01:02:18;7.60;;;5.20;;
11807;SDS011;5961;42.640;23.380;2022-12-18T01:04:44;6.40;;;4.90;;
11807;SDS011;5961;42.640;23.380;2022-12-18T01:07:11;6.83;;;5.53;;
11807;SDS011;5961;42.640;23.380;2022-12-18T01:09:37;7.70;;;5.30;;
11807;SDS011;5961;42.640;23.380;2022-12-18T01:12:05;7.17;;;5.20;;
11807;SDS011;5961;42.640;23.380;2022-12-18T01:14:33;6.60;;;5.30;;
11807;SDS011;5961;42.640;23.380;2022-12-18T01:17:00;7.97;;;5.70;;
11807;SDS011;5961;42.640;23.380;2022-12-18T01:19:27;7.20;;;5.50;;
11807;SDS011;5961;42.640;23.380;2022-12-18T01:21:54;8.30;;;6.27;;
11807;SDS011;5961;42.640;23.380;2022-12-18T01:24:21;6.90;;;5.80;;
11807;SDS011;5961;42.640;23.380;2022-12-18T01:26:47;8.57;;;6.10;;
11807;SDS011;5961;42.640;23.380;2022-12-18T01:29:14;7.67;;;5.47;;
11807;SDS011;5961;42.640;23.380;2022-12-18T01:31:42;7.00;;;5.33;;
11807;SDS011;5961;42.640;23.380;2022-12-18T01:34:09;5.87;;;5.07;;
11807;SDS011;5961;42.640;23.380;2022-12-18T01:36:37;7.27;;;5.20;;
11807;SDS011;5961;42.640;23.380;2022-12-18T01:39:06;6.80;;;5.27;;
11807;SDS011;5961;42.640;23.380;2022-12-18T01:41:34;5.57;;;4.30;;
11807;SDS011;5961;42.640;23.380;2022-12-18T01:47:21;7.00;;;4.77;;
11807;SDS011;5961;42.640;23.380;2022-12-18T01:49:52;7.37;;;5.20;;
11807;SDS011;5961;42.640;23.380;2022-12-18T01:52:19;7.93;;;5.43;;
11807;SDS011;5961;42.640;23.380;2022-12-18T01:54:47;7.70;;;5.17;;
11807;SDS011;5961;42.640;23.380;2022-12-18T01:57:16;8.07;;;5.40;;
11807;SDS011;5961;42.640;23.380;2022-12-18T01:59:43;7.03;;;5.40;;
11807;SDS011;5961;42.640;23.380;2022-12-18T02:02:13;7.00;;;5.47;;
11807;SDS011;5961;42.640;23.380;2022-12-18T02:04:43;7.07;;;5.30;;
11807;SDS011;5961;42.640;23.380;2022-12-18T02:07:11;7.10;;;5.13;;
11807;SDS011;5961;42.640;23.380;2022-12-18T02:09:46;6.73;;;5.20;;
11807;SDS011;5961;42.640;23.380;2022-12-18T02:12:16;8.30;;;5.73;;
11807;SDS011;5961;42.640;23.380;2022-12-18T02:14:47;7.13;;;5.40;;
11807;SDS011;5961;42.640;23.380;2022-12-18T02:17:21;7.70;;;5.70;;
11807;SDS011;5961;42.640;23.380;2022-12-18T02:19:58;7.87;;;5.80;;
11807;SDS011;5961;42.640;23.380;2022-12-18T02:22:37;7.60;;;5.70;;
11807;SDS011;5961;42.640;23.380;2022-12-18T02:25:13;8.43;;;6.00;;
11807;SDS011;5961;42.640;23.380;2022-12-18T02:27:52;8.57;;;6.07;;
11807;SDS011;5961;42.640;23.380;2022-12-18T02:30:21;7.80;;;6.37;;
11807;SDS011;5961;42.640;23.380;2022-12-18T02:32:50;7.87;;;5.57;;
11807;SDS011;5961;42.640;23.380;2022-12-18T02:35:20;8.33;;;5.87;;
11807;SDS011;5961;42.640;23.380;2022-12-18T02:37:50;8.20;;;6.00;;
11807;SDS011;5961;42.640;23.380;2022-12-18T02:40:20;8.50;;;6.10;;
11807;SDS011;5961;42.640;23.380;2022-12-18T02:42:49;9.00;;;6.23;;
11807;SDS011;5961;42.640;23.380;2022-12-18T02:45:17;8.03;;;5.90;;
11807;SDS011;5961;42.640;23.380;2022-12-18T02:47:45;8.43;;;6.07;;
11807;SDS011;5961;42.640;23.380;2022-12-18T02:50:16;7.17;;;5.23;;
11807;SDS011;5961;42.640;23.380;2022-12-18T02:52:51;7.03;;;5.80;;
11807;SDS011;5961;42.640;23.380;2022-12-18T02:55:28;8.17;;;6.03;;
11807;SDS011;5961;42.640;23.380;2022-12-18T02:58:02;7.30;;;5.63;;
11807;SDS011;5961;42.640;23.380;2022-12-18T03:00:35;8.50;;;5.87;;
11807;SDS011;5961;42.640;23.380;2022-12-18T03:03:06;8.10;;;6.20;;
11807;SDS011;5961;42.640;23.380;2022-12-18T03:05:38;7.17;;;5.60;;
11807;SDS011;5961;42.640;23.380;2022-12-18T03:08:10;7.50;;;5.67;;
11807;SDS011;5961;42.640;23.380;2022-12-18T03:10:42;8.07;;;6.20;;
11807;SDS011;5961;42.640;23.380;2022-12-18T03:13:17;7.10;;;5.77;;
11807;SDS011;5961;42.640;23.380;2022-12-18T03:15:51;8.80;;;6.00;;
11807;SDS011;5961;42.640;23.380;2022-12-18T03:18:22;6.43;;;5.30;;
11807;SDS011;5961;42.640;23.380;2022-12-18T03:20:52;8.37;;;5.57;;
11807;SDS011;5961;42.640;23.380;2022-12-18T03:23:22;8.97;;;6.50;;
11807;SDS011;5961;42.640;23.380;2022-12-18T03:25:54;9.10;;;5.93;;
11807;SDS011;5961;42.640;23.380;2022-12-18T03:28:23;7.07;;;5.60;;
11807;SDS011;5961;42.640;23.380;2022-12-18T03:30:52;7.07;;;5.53;;
11807;SDS011;5961;42.640;23.380;2022-12-18T03:33:24;6.83;;;5.60;;
11807;SDS011;5961;42.640;23.380;2022-12-18T03:35:53;8.20;;;5.50;;
11807;SDS011;5961;42.640;23.380;2022-12-18T03:38:20;6.97;;;5.40;;
11807;SDS011;5961;42.640;23.380;2022-12-18T03:40:51;7.10;;;5.47;;
11807;SDS011;5961;42.640;23.380;2022-12-18T03:43:28;6.23;;;5.07;;
11807;SDS011;5961;42.640;23.380;2022-12-18T03:46:04;7.07;;;5.47;;
11807;SDS011;5961;42.640;23.380;2022-12-18T03:48:36;7.43;;;5.50;;
11807;SDS011;5961;42.640;23.380;2022-12-18T03:51:08;6.30;;;4.97;;
11807;SDS011;5961;42.640;23.380;2022-12-18T03:53:41;6.60;;;5.20;;
11807;SDS011;5961;42.640;23.380;2022-12-18T03:56:14;7.00;;;5.13;;
11807;SDS011;5961;42.640;23.380;2022-12-18T03:58:43;9.23;;;5.53;;
11807;SDS011;5961;42.640;23.380;2022-12-18T04:01:13;7.10;;;4.90;;
11807;SDS011;5961;42.640;23.380;2022-12-18T04:03:42;7.00;;;5.60;;
11807;SDS011;5961;42.640;23.380;2022-12-18T04:06:12;7.47;;;5.10;;
11807;SDS011;5961;42.640;23.380;2022-12-18T04:08:41;6.83;;;5.37;;
11807;SDS011;5961;42.640;23.380;2022-12-18T04:11:08;8.17;;;5.53;;
11807;SDS011;5961;42.640;23.380;2022-12-18T04:13:35;7.07;;;5.43;;
11807;SDS011;5961;42.640;23.380;2022-12-18T04:16:03;7.97;;;5.23;;
11807;SDS011;5961;42.640;23.380;2022-12-18T04:18:31;8.27;;;5.50;;
11807;SDS011;5961;42.640;23.380;2022-12-18T04:20:58;8.73;;;5.70;;
11807;SDS011;5961;42.640;23.380;2022-12-18T04:23:25;7.60;;;5.47;;
11807;SDS011;5961;42.640;23.380;2022-12-18T04:25:51;9.00;;;6.23;;
11807;SDS011;5961;42.640;23.380;2022-12-18T04:28:18;7.03;;;5.43;;
11807;SDS011;5961;42.640;23.380;2022-12-18T04:30:48;8.00;;;5.67;;
11807;SDS011;5961;42.640;23.380;2022-12-18T04:33:17;8.63;;;5.80;;
11807;SDS011;5961;42.640;23.380;2022-12-18T04:35:46;8.67;;;5.67;;
11807;SDS011;5961;42.640;23.380;2022-12-18T04:38:13;9.47;;;5.60;;
11807;SDS011;5961;42.640;23.380;2022-12-18T04:40:39;9.37;;;5.60;;
11807;SDS011;5961;42.640;23.380;2022-12-18T04:43:06;7.33;;;5.47;;
11807;SDS011;5961;42.640;23.380;2022-12-18T04:45:33;9.00;;;5.97;;
11807;SDS011;5961;42.640;23.380;2022-12-18T04:47:59;9.87;;;6.50;;
11807;SDS011;5961;42.640;23.380;2022-12-18T04:50:27;9.37;;;6.67;;
11807;SDS011;5961;42.640;23.380;2022-12-18T04:52:56;8.73;;;6.10;;
11807;SDS011;5961;42.640;23.380;2022-12-18T04:55:25;10.13;;;6.83;;
11807;SDS011;5961;42.640;23.380;2022-12-18T04:57:52;10.30;;;6.50;;
11807;SDS011;5961;42.640;23.380;2022-12-18T05:00:19;8.83;;;6.50;;
11807;SDS011;5961;42.640;23.380;2022-12-18T05:02:47;12.47;;;7.03;;
11807;SDS011;5961;42.640;23.380;2022-12-18T05:05:13;10.40;;;6.23;;
11807;SDS011;5961;42.640;23.380;2022-12-18T05:07:40;11.30;;;6.83;;
11807;SDS011;5961;42.640;23.380;2022-12-18T05:10:08;10.13;;;6.90;;
11807;SDS011;5961;42.640;23.380;2022-12-18T05:12:35;9.67;;;7.00;;
11807;SDS011;5961;42.640;23.380;2022-12-18T05:15:23;11.03;;;7.03;;
11807;SDS011;5961;42.640;23.380;2022-12-18T05:17:50;11.33;;;7.17;;
11807;SDS011;5961;42.640;23.380;2022-12-18T05:20:16;10.80;;;6.70;;
11807;SDS011;5961;42.640;23.380;2022-12-18T05:22:44;8.77;;;6.57;;
11807;SDS011;5961;42.640;23.380;2022-12-18T05:25:12;10.13;;;6.63;;
11807;SDS011;5961;42.640;23.380;2022-12-18T05:27:38;10.83;;;7.00;;
11807;SDS011;5961;42.640;23.380;2022-12-18T05:30:05;11.33;;;7.00;;
11807;SDS011;5961;42.640;23.380;2022-12-18T05:32:33;9.53;;;6.20;;
11807;SDS011;5961;42.640;23.380;2022-12-18T05:35:00;10.57;;;7.13;;
11807;SDS011;5961;42.640;23.380;2022-12-18T05:37:26;10.97;;;7.20;;
11807;SDS011;5961;42.640;23.380;2022-12-18T05:39:53;11.03;;;6.90;;
11807;SDS011;5961;42.640;23.380;2022-12-18T05:42:21;10.93;;;7.33;;
11807;SDS011;5961;42.640;23.380;2022-12-18T05:44:48;11.53;;;7.77;;
11807;SDS011;5961;42.640;23.380;2022-12-18T05:47:14;11.23;;;7.40;;
11807;SDS011;5961;42.640;23.380;2022-12-18T05:49:41;10.00;;;6.83;;
11807;SDS011;5961;42.640;23.380;2022-12-18T05:52:08;9.70;;;6.87;;
11807;SDS011;5961;42.640;23.380;2022-12-18T05:54:35;11.03;;;6.87;;
11807;SDS011;5961;42.640;23.380;2022-12-18T05:57:02;12.20;;;7.37;;
11807;SDS011;5961;42.640;23.380;2022-12-18T05:59:30;10.40;;;7.13;;
11807;SDS011;5961;42.640;23.380;2022-12-18T06:01:56;9.90;;;7.20;;
11807;SDS011;5961;42.640;23.380;2022-12-18T06:04:23;11.87;;;7.20;;
11807;SDS011;5961;42.640;23.380;2022-12-18T06:06:50;10.47;;;7.37;;
11807;SDS011;5961;42.640;23.380;2022-12-18T06:09:16;10.03;;;7.37;;
11807;SDS011;5961;42.640;23.380;2022-12-18T06:11:44;12.10;;;7.57;;
11807;SDS011;5961;42.640;23.380;2022-12-18T06:14:10;12.23;;;7.90;;
11807;SDS011;5961;42.640;23.380;2022-12-18T06:16:38;12.47;;;7.63;;
11807;SDS011;5961;42.640;23.380;2022-12-18T06:19:05;12.53;;;7.60;;
11807;SDS011;5961;42.640;23.380;2022-12-18T06:21:32;12.47;;;7.90;;
11807;SDS011;5961;42.640;23.380;2022-12-18T06:23:59;13.37;;;7.80;;
11807;SDS011;5961;42.640;23.380;2022-12-18T06:26:26;11.33;;;7.20;;
11807;SDS011;5961;42.640;23.380;2022-12-18T06:28:53;12.37;;;8.87;;
11807;SDS011;5961;42.640;23.380;2022-12-18T06:31:20;13.70;;;8.40;;
11807;SDS011;5961;42.640;23.380;2022-12-18T06:33:48;17.77;;;9.30;;
11807;SDS011;5961;42.640;23.380;2022-12-18T06:36:17;13.87;;;8.60;;
11807;SDS011;5961;42.640;23.380;2022-12-18T06:38:44;15.17;;;8.77;;
11807;SDS011;5961;42.640;23.380;2022-12-18T06:41:12;12.37;;;7.93;;
11807;SDS011;5961;42.640;23.380;2022-12-18T06:43:40;15.10;;;8.20;;
11807;SDS011;5961;42.640;23.380;2022-12-18T06:46:07;14.40;;;8.83;;
11807;SDS011;5961;42.640;23.380;2022-12-18T06:48:34;13.90;;;8.73;;
11807;SDS011;5961;42.640;23.380;2022-12-18T06:51:03;15.43;;;8.97;;
11807;SDS011;5961;42.640;23.380;2022-12-18T06:53:31;11.70;;;7.87;;
11807;SDS011;5961;42.640;23.380;2022-12-18T06:56:01;13.07;;;8.73;;
11807;SDS011;5961;42.640;23.380;2022-12-18T06:58:29;10.97;;;7.50;;
11807;SDS011;5961;42.640;23.380;2022-12-18T07:00:59;14.17;;;9.20;;
11807;SDS011;5961;42.640;23.380;2022-12-18T07:03:26;14.53;;;8.20;;
11807;SDS011;5961;42.640;23.380;2022-12-18T07:05:53;14.20;;;8.67;;
11807;SDS011;5961;42.640;23.380;2022-12-18T07:08:21;13.00;;;8.50;;
11807;SDS011;5961;42.640;23.380;2022-12-18T07:10:48;12.87;;;8.80;;
11807;SDS011;5961;42.640;23.380;2022-12-18T07:13:15;14.07;;;8.53;;
11807;SDS011;5961;42.640;23.380;2022-12-18T07:15:42;14.20;;;8.70;;
11807;SDS011;5961;42.640;23.380;2022-12-18T07:18:08;12.37;;;8.57;;
11807;SDS011;5961;42.640;23.380;2022-12-18T07:20:36;13.17;;;8.80;;
11807;SDS011;5961;42.640;23.380;2022-12-18T07:23:03;14.03;;;9.30;;
11807;SDS011;5961;42.640;23.380;2022-12-18T07:25:31;14.83;;;9.63;;
11807;SDS011;5961;42.640;23.380;2022-12-18T07:27:59;15.03;;;8.93;;
11807;SDS011;5961;42.640;23.380;2022-12-18T07:30:26;13.20;;;8.97;;
11807;SDS011;5961;42.640;23.380;2022-12-18T07:32:53;13.90;;;9.37;;
11807;SDS011;5961;42.640;23.380;2022-12-18T07:35:20;15.50;;;9.33;;
11807;SDS011;5961;42.640;23.380;2022-12-18T07:37:46;15.70;;;9.40;;
11807;SDS011;5961;42.640;23.380;2022-12-18T07:40:13;14.47;;;8.90;;
11807;SDS011;5961;42.640;23.380;2022-12-18T07:42:41;14.70;;;9.50;;
11807;SDS011;5961;42.640;23.380;2022-12-18T07:45:08;13.30;;;8.50;;
11807;SDS011;5961;42.640;23.380;2022-12-18T07:47:35;13.70;;;8.87;;
11807;SDS011;5961;42.640;23.380;2022-12-18T07:50:03;12.40;;;8.50;;
11807;SDS011;5961;42.640;23.380;2022-12-18T07:52:30;13.07;;;8.43;;
11807;SDS011;5961;42.640;23.380;2022-12-18T07:54:57;13.87;;;8.70;;
11807;SDS011;5961;42.640;23.380;2022-12-18T07:57:24;16.37;;;9.00;;
11807;SDS011;5961;42.640;23.380;2022-12-18T07:59:52;14.83;;;9.00;;
11807;SDS011;5961;42.640;23.380;2022-12-18T08:02:18;15.10;;;8.67;;
11807;SDS011;5961;42.640;23.380;2022-12-18T08:04:45;14.70;;;9.23;;
11807;SDS011;5961;42.640;23.380;2022-12-18T08:07:12;13.23;;;8.93;;
11807;SDS011;5961;42.640;23.380;2022-12-18T08:09:39;16.10;;;9.40;;
11807;SDS011;5961;42.640;23.380;2022-12-18T08:12:06;15.87;;;10.53;;
11807;SDS011;5961;42.640;23.380;2022-12-18T08:14:32;18.57;;;10.07;;
11807;SDS011;5961;42.640;23.380;2022-12-18T08:17:00;16.03;;;9.97;;
11807;SDS011;5961;42.640;23.380;2022-12-18T08:19:27;16.37;;;10.13;;
11807;SDS011;5961;42.640;23.380;2022-12-18T08:21:56;18.23;;;10.90;;
11807;SDS011;5961;42.640;23.380;2022-12-18T08:24:26;17.90;;;10.53;;
11807;SDS011;5961;42.640;23.380;2022-12-18T08:26:53;15.63;;;9.97;;
11807;SDS011;5961;42.640;23.380;2022-12-18T08:29:20;18.07;;;10.40;;
11807;SDS011;5961;42.640;23.380;2022-12-18T08:31:46;17.53;;;10.60;;
11807;SDS011;5961;42.640;23.380;2022-12-18T08:34:14;18.10;;;10.30;;
11807;SDS011;5961;42.640;23.380;2022-12-18T08:36:41;19.13;;;10.70;;
11807;SDS011;5961;42.640;23.380;2022-12-18T08:39:08;17.57;;;10.40;;
11807;SDS011;5961;42.640;23.380;2022-12-18T08:41:34;16.50;;;9.77;;
11807;SDS011;5961;42.640;23.380;2022-12-18T08:44:01;16.63;;;10.77;;
11807;SDS011;5961;42.640;23.380;2022-12-18T08:46:45;17.93;;;9.87;;
11807;SDS011;5961;42.640;23.380;2022-12-18T08:49:12;19.93;;;10.70;;
11807;SDS011;5961;42.640;23.380;2022-12-18T08:51:41;18.43;;;10.80;;
11807;SDS011;5961;42.640;23.380;2022-12-18T08:54:09;17.20;;;10.50;;
11807;SDS011;5961;42.640;23.380;2022-12-18T08:56:37;19.87;;;10.80;;
11807;SDS011;5961;42.640;23.380;2022-12-18T08:59:04;17.93;;;10.43;;
11807;SDS011;5961;42.640;23.380;2022-12-18T09:01:31;15.87;;;10.20;;
11807;SDS011;5961;42.640;23.380;2022-12-18T09:03:58;18.20;;;11.23;;
11807;SDS011;5961;42.640;23.380;2022-12-18T09:06:24;16.10;;;10.50;;
11807;SDS011;5961;42.640;23.380;2022-12-18T09:08:52;17.47;;;10.87;;
11807;SDS011;5961;42.640;23.380;2022-12-18T09:11:20;16.93;;;10.87;;
11807;SDS011;5961;42.640;23.380;2022-12-18T09:13:49;17.87;;;10.97;;
11807;SDS011;5961;42.640;23.380;2022-12-18T09:16:16;19.57;;;10.83;;
11807;SDS011;5961;42.640;23.380;2022-12-18T09:18:43;18.93;;;10.90;;
11807;SDS011;5961;42.640;23.380;2022-12-18T09:21:10;17.37;;;10.50;;
11807;SDS011;5961;42.640;23.380;2022-12-18T09:23:38;18.37;;;11.63;;
11807;SDS011;5961;42.640;23.380;2022-12-18T09:26:06;19.87;;;11.53;;
11807;SDS011;5961;42.640;23.380;2022-12-18T09:28:33;18.80;;;11.57;;
11807;SDS011;5961;42.640;23.380;2022-12-18T09:31:03;16.77;;;10.17;;
11807;SDS011;5961;42.640;23.380;2022-12-18T09:33:32;15.73;;;10.00;;
11807;SDS011;5961;42.640;23.380;2022-12-18T09:36:00;18.70;;;11.00;;
11807;SDS011;5961;42.640;23.380;2022-12-18T09:38:27;18.17;;;10.70;;
11807;SDS011;5961;42.640;23.380;2022-12-18T09:40:56;18.70;;;10.50;;
11807;SDS011;5961;42.640;23.380;2022-12-18T09:43:28;18.53;;;9.57;;
11807;SDS011;5961;42.640;23.380;2022-12-18T09:46:03;16.57;;;9.90;;
11807;SDS011;5961;42.640;23.380;2022-12-18T09:48:34;15.07;;;9.30;;
11807;SDS011;5961;42.640;23.380;2022-12-18T09:51:05;12.93;;;8.63;;
11807;SDS011;5961;42.640;23.380;2022-12-18T09:53:38;14.87;;;9.53;;
11807;SDS011;5961;42.640;23.380;2022-12-18T09:56:10;16.03;;;9.37;;
11807;SDS011;5961;42.640;23.380;2022-12-18T09:58:43;14.57;;;8.90;;
11807;SDS011;5961;42.640;23.380;2022-12-18T10:01:15;15.80;;;9.67;;
11807;SDS011;5961;42.640;23.380;2022-12-18T10:03:46;15.10;;;9.43;;
11807;SDS011;5961;42.640;23.380;2022-12-18T10:06:15;14.87;;;9.27;;
11807;SDS011;5961;42.640;23.380;2022-12-18T10:08:49;15.97;;;8.73;;
11807;SDS011;5961;42.640;23.380;2022-12-18T10:11:22;16.13;;;9.40;;
11807;SDS011;5961;42.640;23.380;2022-12-18T10:14:01;15.90;;;9.50;;
11807;SDS011;5961;42.640;23.380;2022-12-18T10:16:35;16.93;;;10.33;;
11807;SDS011;5961;42.640;23.380;2022-12-18T10:19:23;18.03;;;10.43;;
11807;SDS011;5961;42.640;23.380;2022-12-18T10:21:59;16.33;;;10.33;;
11807;SDS011;5961;42.640;23.380;2022-12-18T10:24:37;18.97;;;10.03;;
11807;SDS011;5961;42.640;23.380;2022-12-18T10:27:11;16.23;;;10.20;;
11807;SDS011;5961;42.640;23.380;2022-12-18T10:29:42;17.80;;;10.67;;
11807;SDS011;5961;42.640;23.380;2022-12-18T10:32:13;15.07;;;9.40;;
11807;SDS011;5961;42.640;23.380;2022-12-18T10:34:44;16.27;;;10.20;;
11807;SDS011;5961;42.640;23.380;2022-12-18T10:37:12;17.80;;;10.33;;
11807;SDS011;5961;42.640;23.380;2022-12-18T10:39:42;16.70;;;9.57;;
11807;SDS011;5961;42.640;23.380;2022-12-18T10:42:10;17.77;;;9.30;;
11807;SDS011;5961;42.640;23.380;2022-12-18T10:44:40;19.80;;;10.40;;
11807;SDS011;5961;42.640;23.380;2022-12-18T10:47:11;22.47;;;10.83;;
11807;SDS011;5961;42.640;23.380;2022-12-18T10:49:42;17.37;;;10.03;;
11807;SDS011;5961;42.640;23.380;2022-12-18T10:52:14;15.73;;;9.97;;
11807;SDS011;5961;42.640;23.380;2022-12-18T10:54:50;18.27;;;10.37;;
11807;SDS011;5961;42.640;23.380;2022-12-18T10:57:28;19.00;;;10.63;;
11807;SDS011;5961;42.640;23.380;2022-12-18T10:59:58;18.90;;;10.83;;
11807;SDS011;5961;42.640;23.380;2022-12-18T11:02:28;17.83;;;10.67;;
11807;SDS011;5961;42.640;23.380;2022-12-18T11:05:00;20.30;;;10.83;;
11807;SDS011;5961;42.640;23.380;2022-12-18T11:07:33;17.47;;;10.60;;
11807;SDS011;5961;42.640;23.380;2022-12-18T11:10:15;17.90;;;10.60;;
11807;SDS011;5961;42.640;23.380;2022-12-18T11:12:42;17.30;;;10.77;;
11807;SDS011;5961;42.640;23.380;2022-12-18T11:15:13;18.70;;;11.27;;
11807;SDS011;5961;42.640;23.380;2022-12-18T11:17:44;19.30;;;10.57;;
11807;SDS011;5961;42.640;23.380;2022-12-18T11:20:19;17.93;;;10.60;;
11807;SDS011;5961;42.640;23.380;2022-12-18T11:22:54;16.63;;;10.50;;
11807;SDS011;5961;42.640;23.380;2022-12-18T11:25:23;13.80;;;8.83;;
11807;SDS011;5961;42.640;23.380;2022-12-18T11:27:51;22.03;;;9.87;;
11807;SDS011;5961;42.640;23.380;2022-12-18T11:30:23;16.07;;;8.77;;
11807;SDS011;5961;42.640;23.380;2022-12-18T11:32:54;15.23;;;9.00;;
11807;SDS011;5961;42.640;23.380;2022-12-18T11:35:30;15.70;;;9.43;;
11807;SDS011;5961;42.640;23.380;2022-12-18T11:38:04;15.60;;;9.17;;
11807;SDS011;5961;42.640;23.380;2022-12-18T11:40:40;14.93;;;9.77;;
11807;SDS011;5961;42.640;23.380;2022-12-18T11:43:10;16.13;;;10.10;;
11807;SDS011;5961;42.640;23.380;2022-12-18T11:45:43;17.77;;;10.37;;
11807;SDS011;5961;42.640;23.380;2022-12-18T11:48:18;14.83;;;8.97;;
11807;SDS011;5961;42.640;23.380;2022-12-18T11:50:49;18.40;;;10.33;;
11807;SDS011;5961;42.640;23.380;2022-12-18T11:53:17;14.13;;;9.00;;
11807;SDS011;5961;42.640;23.380;2022-12-18T11:55:50;16.17;;;10.50;;
11807;SDS011;5961;42.640;23.380;2022-12-18T11:58:30;15.03;;;9.30;;
11807;SDS011;5961;42.640;23.380;2022-12-18T12:01:13;12.53;;;8.30;;
11807;SDS011;5961;42.640;23.380;2022-12-18T12:06:48;15.77;;;9.20;;
11807;SDS011;5961;42.640;23.380;2022-12-18T12:09:22;13.87;;;8.67;;
11807;SDS011;5961;42.640;23.380;2022-12-18T12:11:56;15.47;;;9.57;;
11807;SDS011;5961;42.640;23.380;2022-12-18T12:14:37;16.07;;;10.03;;
11807;SDS011;5961;42.640;23.380;2022-12-18T12:17:12;16.20;;;9.87;;
11807;SDS011;5961;42.640;23.380;2022-12-18T12:19:46;17.50;;;10.83;;
11807;SDS011;5961;42.640;23.380;2022-12-18T12:22:20;18.80;;;10.50;;
11807;SDS011;5961;42.640;23.380;2022-12-18T12:24:55;15.57;;;9.03;;
11807;SDS011;5961;42.640;23.380;2022-12-18T12:27:33;18.23;;;10.87;;
11807;SDS011;5961;42.640;23.380;2022-12-18T12:30:11;20.70;;;11.60;;
11807;SDS011;5961;42.640;23.380;2022-12-18T12:32:54;16.77;;;11.10;;
11807;SDS011;5961;42.640;23.380;2022-12-18T12:35:38;17.17;;;10.27;;
11807;SDS011;5961;42.640;23.380;2022-12-18T12:38:14;15.10;;;9.57;;
11807;SDS011;5961;42.640;23.380;2022-12-18T12:40:47;19.03;;;10.07;;
11807;SDS011;5961;42.640;23.380;2022-12-18T12:43:22;15.90;;;9.97;;
11807;SDS011;5961;42.640;23.380;2022-12-18T12:45:55;18.53;;;10.40;;
11807;SDS011;5961;42.640;23.380;2022-12-18T12:48:32;18.20;;;11.23;;
11807;SDS011;5961;42.640;23.380;2022-12-18T12:51:06;17.97;;;10.37;;
11807;SDS011;5961;42.640;23.380;2022-12-18T12:53:40;17.83;;;11.37;;
11807;SDS011;5961;42.640;23.380;2022-12-18T12:56:07;18.97;;;10.77;;
11807;SDS011;5961;42.640;23.380;2022-12-18T12:58:38;18.73;;;10.87;;
11807;SDS011;5961;42.640;23.380;2022-12-18T13:01:16;16.03;;;10.47;;
11807;SDS011;5961;42.640;23.380;2022-12-18T13:03:55;17.13;;;10.60;;
11807;SDS011;5961;42.640;23.380;2022-12-18T13:06:38;17.73;;;10.80;;
11807;SDS011;5961;42.640;23.380;2022-12-18T13:09:10;17.47;;;11.40;;
11807;SDS011;5961;42.640;23.380;2022-12-18T13:11:38;19.13;;;10.90;;
11807;SDS011;5961;42.640;23.380;2022-12-18T13:14:26;20.80;;;11.47;;
11807;SDS011;5961;42.640;23.380;2022-12-18T13:20:02;19.50;;;11.53;;
11807;SDS011;5961;42.640;23.380;2022-12-18T13:22:33;19.13;;;11.20;;
11807;SDS011;5961;42.640;23.380;2022-12-18T13:25:03;18.63;;;11.60;;
11807;SDS011;5961;42.640;23.380;2022-12-18T13:28:01;20.60;;;11.73;;
11807;SDS011;5961;42.640;23.380;2022-12-18T13:30:41;18.93;;;10.77;;
11807;SDS011;5961;42.640;23.380;2022-12-18T13:36:12;18.23;;;10.90;;
11807;SDS011;5961;42.640;23.380;2022-12-18T13:38:42;18.60;;;11.50;;
11807;SDS011;5961;42.640;23.380;2022-12-18T13:41:23;19.00;;;11.13;;
11807;SDS011;5961;42.640;23.380;2022-12-18T13:43:54;16.80;;;10.83;;
11807;SDS011;5961;42.640;23.380;2022-12-18T13:46:24;17.37;;;10.23;;
11807;SDS011;5961;42.640;23.380;2022-12-18T13:48:57;15.57;;;9.73;;
11807;SDS011;5961;42.640;23.380;2022-12-18T13:51:26;16.60;;;9.87;;
11807;SDS011;5961;42.640;23.380;2022-12-18T13:53:56;15.87;;;10.90;;
11807;SDS011;5961;42.640;23.380;2022-12-18T13:56:28;17.33;;;10.30;;
11807;SDS011;5961;42.640;23.380;2022-12-18T13:59:03;17.60;;;10.87;;
11807;SDS011;5961;42.640;23.380;2022-12-18T14:01:41;18.63;;;11.43;;
11807;SDS011;5961;42.640;23.380;2022-12-18T14:04:09;21.60;;;10.83;;
11807;SDS011;5961;42.640;23.380;2022-12-18T14:06:36;18.43;;;11.13;;
11807;SDS011;5961;42.640;23.380;2022-12-18T14:09:03;19.30;;;11.33;;
11807;SDS011;5961;42.640;23.380;2022-12-18T14:11:31;17.87;;;10.80;;
11807;SDS011;5961;42.640;23.380;2022-12-18T14:13:58;21.07;;;11.17;;
11807;SDS011;5961;42.640;23.380;2022-12-18T14:16:25;17.00;;;10.73;;
11807;SDS011;5961;42.640;23.380;2022-12-18T14:18:54;19.00;;;11.40;;
11807;SDS011;5961;42.640;23.380;2022-12-18T14:21:23;21.90;;;10.83;;
11807;SDS011;5961;42.640;23.380;2022-12-18T14:24:02;16.63;;;10.57;;
11807;SDS011;5961;42.640;23.380;2022-12-18T14:26:32;17.37;;;9.90;;
11807;SDS011;5961;42.640;23.380;2022-12-18T14:28:59;19.57;;;10.80;;
11807;SDS011;5961;42.640;23.380;2022-12-18T14:31:28;16.47;;;10.20;;
11807;SDS011;5961;42.640;23.380;2022-12-18T14:33:56;16.43;;;9.67;;
11807;SDS011;5961;42.640;23.380;2022-12-18T14:36:24;15.50;;;9.57;;
11807;SDS011;5961;42.640;23.380;2022-12-18T14:38:52;15.07;;;9.23;;
11807;SDS011;5961;42.640;23.380;2022-12-18T14:41:20;15.77;;;9.30;;
11807;SDS011;5961;42.640;23.380;2022-12-18T14:43:50;13.77;;;8.93;;
11807;SDS011;5961;42.640;23.380;2022-12-18T14:46:25;17.07;;;9.93;;
11807;SDS011;5961;42.640;23.380;2022-12-18T14:48:55;16.03;;;9.27;;
11807;SDS011;5961;42.640;23.380;2022-12-18T14:51:23;15.07;;;8.53;;
11807;SDS011;5961;42.640;23.380;2022-12-18T14:53:53;14.10;;;8.83;;
11807;SDS011;5961;42.640;23.380;2022-12-18T14:56:21;15.40;;;9.60;;
11807;SDS011;5961;42.640;23.380;2022-12-18T14:58:51;13.33;;;9.20;;
11807;SDS011;5961;42.640;23.380;2022-12-18T15:01:22;13.77;;;8.93;;
11807;SDS011;5961;42.640;23.380;2022-12-18T15:03:51;14.77;;;9.17;;